Terminal Aerodrome Forecast
Issued by NWS

Home | Current Version | Previous Version | Text Only | Print | Product List | Glossary On
Versions: 1 2 3 4 5 6 7 8 9 10 11 12 13
000
FTUS46 KLOX 240500
TAFPRB
TAF
KPRB 240530Z 2406/2506 VRB03KT P6SM SKC
     FM242100 22010KT P6SM SKC
     FM250300 VRB03KT P6SM SCT200=

USA.gov is the U.S. government's official web portal to all federal, state and local government web resources and services.